Time;durP1;ratioP1;P1;durP2;ratioP2;P2;SDS_P1;SDS_P2;PMS_P1;PMS_P2;Temp;Humidity;BMP_temperature;BMP_pressure;BME280_temperature;BME280_humidity;BME280_pressure;Samples;Min_cycle;Max_cycle;Signal;HPM_P1;HPM_P2
2021/05/13 00:00:32;;;;;;;2.96;1.62;;;;;;;13.71;53.54;98738.42;310542;110;2087672;-73
2021/05/13 00:01:37;;;;;;;3.62;1.80;;;;;;;13.72;53.74;98739.23;330362;113;1960993;-73
2021/05/13 00:02:49;;;;;;;6.05;1.63;;;;;;;13.79;53.77;98740.70;398277;104;1985925;-73
2021/05/13 00:03:55;;;;;;;3.37;1.72;;;;;;;13.68;54.09;98738.92;373591;107;1962982;-71
2021/05/13 00:05:03;;;;;;;4.23;1.58;;;;;;;13.68;54.16;98744.34;363208;107;2960008;-73
2021/05/13 00:06:15;;;;;;;3.49;1.74;;;;;;;13.78;55.25;98741.76;395557;104;1987007;-73
2021/05/13 00:07:22;;;;;;;4.07;1.50;;;;;;;13.67;54.63;98744.58;318710;108;2852049;-72
2021/05/13 00:08:28;;;;;;;3.70;1.48;;;;;;;13.66;54.35;98746.48;340468;106;1961959;-73
2021/05/13 00:09:42;;;;;;;4.05;1.49;;;;;;;13.77;54.46;98744.73;391634;106;1964980;-73
2021/05/13 00:10:48;;;;;;;4.57;1.95;;;;;;;13.64;54.71;98743.19;368188;107;1961921;-73
2021/05/13 00:11:54;;;;;;;4.74;1.79;;;;;;;13.63;54.50;98746.98;364721;111;1963924;-73
2021/05/13 00:13:09;;;;;;;4.42;1.90;;;;;;;13.75;54.76;98741.44;333639;104;2228935;-71
2021/05/13 00:14:16;;;;;;;4.73;1.58;;;;;;;13.63;55.00;98736.13;375324;105;1969923;-74
2021/05/13 00:15:34;;;;;;;3.46;1.56;;;;;;;13.73;55.06;98735.44;394770;104;1985972;-73
2021/05/13 00:16:47;;;;;;;11.69;4.39;;;;;;;13.69;55.13;98729.70;364815;104;2473966;-73
2021/05/13 00:18:12;;;;;;;6.97;2.62;;;;;;;13.57;55.08;98728.96;381227;105;1961984;-73
2021/05/13 00:19:24;;;;;;;3.99;1.59;;;;;;;13.66;55.25;98730.20;379765;109;1986920;-72
2021/05/13 00:20:36;;;;;;;4.67;1.56;;;;;;;13.50;55.19;98726.44;356672;114;1962044;-73
2021/05/13 00:22:00;;;;;;;4.26;1.58;;;;;;;13.52;54.95;98731.59;355555;114;1961931;-73
2021/05/13 00:23:06;;;;;;;3.46;1.48;;;;;;;13.51;55.05;98733.49;334743;112;2295901;-74
2021/05/13 00:24:15;;;;;;;5.80;1.45;;;;;;;13.48;55.24;98725.04;346989;114;1964796;-73
2021/05/13 00:25:50;;;;;;;4.93;1.33;;;;;;;13.55;55.82;98729.23;398097;103;1985968;-73
2021/05/13 00:26:59;;;;;;;5.22;1.66;;;;;;;13.38;55.69;98731.94;339425;105;2709951;-73
2021/05/13 00:28:04;;;;;;;3.59;1.54;;;;;;;13.36;55.88;98728.67;380372;105;1963071;-73
2021/05/13 00:29:12;;;;;;;3.81;1.76;;;;;;;13.37;55.77;98722.16;379704;105;1962896;-73
2021/05/13 00:30:25;;;;;;;4.34;1.34;;;;;;;13.43;56.04;98727.67;396743;104;1987037;-73
2021/05/13 00:31:38;;;;;;;3.81;2.01;;;;;;;13.41;55.74;98717.87;399194;104;2070999;-71
2021/05/13 00:33:02;;;;;;;4.06;1.64;;;;;;;13.31;55.89;98725.88;370030;105;1961967;-72
2021/05/13 00:34:14;;;;;;;4.52;1.59;;;;;;;13.39;56.22;98727.35;393681;104;2071923;-74
2021/05/13 00:35:22;;;;;;;3.49;1.29;;;;;;;13.28;56.10;98726.34;364907;109;1964030;-73
2021/05/13 00:36:32;;;;;;;1.93;1.17;;;;;;;13.25;56.13;98717.86;366972;107;1961957;-73
2021/05/13 00:37:46;;;;;;;2.78;1.54;;;;;;;13.31;56.40;98719.60;403874;101;1986941;-74
2021/05/13 00:38:51;;;;;;;4.93;1.42;;;;;;;13.19;56.29;98725.91;365846;105;1962952;-74
2021/05/13 00:39:56;;;;;;;4.96;1.31;;;;;;;13.19;56.39;98722.38;379320;105;1962004;-72
2021/05/13 00:41:02;;;;;;;4.92;1.63;;;;;;;13.18;56.38;98718.03;376752;106;1961887;-74
2021/05/13 00:42:07;;;;;;;3.58;1.98;;;;;;;13.17;56.21;98710.95;380129;105;1962871;-74
2021/05/13 00:43:20;;;;;;;4.02;1.84;;;;;;;13.29;56.49;98713.63;396727;104;1985903;-73
2021/05/13 00:44:25;;;;;;;3.04;1.51;;;;;;;13.16;56.28;98710.12;339618;106;1963875;-72
2021/05/13 00:45:38;;;;;;;4.13;1.42;;;;;;;13.31;56.14;98715.02;394959;104;1985933;-72
2021/05/13 00:46:49;;;;;;;4.77;1.22;;;;;;;13.19;56.36;98714.24;376567;107;1961083;-70
2021/05/13 00:48:17;;;;;;;2.97;1.70;;;;;;;13.20;56.24;98708.59;376853;107;1960927;-72
2021/05/13 00:49:29;;;;;;;4.04;1.76;;;;;;;13.29;56.44;98710.91;397608;103;1984829;-71
2021/05/13 00:50:35;;;;;;;3.96;1.61;;;;;;;13.17;56.47;98709.05;324424;105;2110794;-73
2021/05/13 00:51:48;;;;;;;4.05;1.72;;;;;;;13.27;56.46;98704.91;396459;101;2069890;-74
2021/05/13 00:52:54;;;;;;;3.39;1.43;;;;;;;13.13;56.57;98698.97;380477;105;1961919;-72
2021/05/13 00:54:18;;;;;;;7.32;1.64;;;;;;;13.13;56.57;98698.97;381341;105;1962110;-73
2021/05/13 00:55:32;;;;;;;2.79;1.16;;;;;;;13.19;56.78;98695.26;381718;107;1985905;-73
2021/05/13 00:56:39;;;;;;;3.65;1.52;;;;;;;13.04;57.02;98693.11;358239;110;1961937;-73
2021/05/13 00:57:48;;;;;;;4.96;1.57;;;;;;;13.00;57.01;98689.26;318550;111;2680962;-72
2021/05/13 00:59:10;;;;;;;4.17;1.64;;;;;;;13.08;57.02;98698.88;382191;104;1985982;-73
2021/05/13 01:00:32;;;;;;;3.09;1.34;;;;;;;12.93;56.94;98694.83;371894;108;1964034;-72
2021/05/13 01:01:51;;;;;;;3.73;1.47;;;;;;;12.98;57.38;98696.81;391033;105;1985918;-72
2021/05/13 01:02:57;;;;;;;2.96;1.52;;;;;;;12.85;57.23;98695.23;370469;108;1962004;-72
2021/05/13 01:04:09;;;;;;;3.52;1.73;;;;;;;12.94;57.10;98701.09;344066;104;2118920;-71
2021/05/13 01:05:15;;;;;;;3.92;1.44;;;;;;;12.82;57.22;98695.72;341787;107;1961005;-71
2021/05/13 01:06:27;;;;;;;3.56;1.62;;;;;;;12.90;57.64;98703.45;397147;104;1984888;-72
2021/05/13 01:07:32;;;;;;;5.47;1.84;;;;;;;12.74;57.86;98694.23;371150;108;1960841;-73
2021/05/13 01:08:55;;;;;;;4.68;2.06;;;;;;;12.73;57.54;98700.73;373041;105;1961947;-72
2021/05/13 01:10:01;;;;;;;6.86;2.34;;;;;;;12.71;58.00;98699.33;372591;107;1962001;-73
2021/05/13 01:11:11;;;;;;;14.31;3.05;;;;;;;12.69;57.86;98696.84;371066;107;1960818;-72
2021/05/13 01:12:31;;;;;;;4.76;2.67;;;;;;;12.85;57.75;98691.70;400791;104;1986028;-73
2021/05/13 01:13:52;;;;;;;5.52;2.44;;;;;;;12.73;57.54;98698.02;382121;105;1962895;-71
2021/05/13 01:14:59;;;;;;;5.63;2.71;;;;;;;12.71;57.87;98700.14;382156;105;1963963;-72
2021/05/13 01:16:24;;;;;;;4.04;2.04;;;;;;;12.67;58.09;98700.86;362277;105;1962951;-72
2021/05/13 01:17:43;;;;;;;4.80;2.42;;;;;;;12.75;58.09;98705.88;395618;104;2071893;-71
2021/05/13 01:18:47;;;;;;;5.46;2.28;;;;;;;12.62;58.38;98700.77;361412;111;1961993;-72
2021/05/13 01:19:59;;;;;;;5.64;2.34;;;;;;;12.72;58.76;98699.06;393576;104;1962021;-73
2021/05/13 01:21:05;;;;;;;6.17;3.08;;;;;;;12.61;58.26;98696.42;369563;108;1970013;-71
2021/05/13 01:22:16;;;;;;;4.04;1.98;;;;;;;12.61;58.41;98699.14;368626;109;1962983;-72
2021/05/13 01:23:28;;;;;;;4.42;1.93;;;;;;;12.68;58.61;98697.92;360500;104;1987809;-72
2021/05/13 01:24:33;;;;;;;4.82;1.99;;;;;;;12.56;58.47;98696.33;352997;105;1964041;-72
2021/05/13 01:25:51;;;;;;;4.41;2.07;;;;;;;12.65;59.00;98694.86;377923;108;1985913;-72
2021/05/13 01:26:57;;;;;;;3.91;2.07;;;;;;;12.50;58.90;98698.94;358970;111;1962023;-73
2021/05/13 01:28:04;;;;;;;4.71;2.08;;;;;;;12.47;59.09;98694.02;340481;112;1961995;-72
2021/05/13 01:29:10;;;;;;;2.94;1.71;;;;;;;12.44;59.12;98694.50;358533;112;1962005;-72
2021/05/13 01:30:23;;;;;;;3.42;1.84;;;;;;;12.51;59.25;98691.63;360500;104;2234956;-72
2021/05/13 01:31:28;;;;;;;3.78;2.06;;;;;;;12.38;59.80;98697.34;368975;107;1962871;-72
2021/05/13 01:32:34;;;;;;;3.61;2.18;;;;;;;12.38;59.43;98700.05;375803;107;1963002;-73
2021/05/13 01:33:42;;;;;;;3.78;2.07;;;;;;;12.36;59.47;98699.45;373436;107;1960819;-72
2021/05/13 01:34:47;;;;;;;7.09;2.32;;;;;;;12.36;59.33;98692.18;338310;109;2438066;-73
2021/05/13 01:36:01;;;;;;;5.77;2.18;;;;;;;12.47;59.44;98691.30;389667;104;2072016;-72
2021/05/13 01:37:06;;;;;;;5.86;2.30;;;;;;;12.36;59.74;98686.77;372595;107;1961984;-72
2021/05/13 01:38:22;;;;;;;5.11;2.76;;;;;;;12.44;60.15;98685.56;393093;103;2081062;-72
2021/05/13 01:39:34;;;;;;;3.44;2.05;;;;;;;12.40;60.02;98687.91;397336;103;1985917;-72
2021/05/13 01:41:00;;;;;;;4.40;2.24;;;;;;;12.23;60.02;98685.16;349441;105;1961905;-72
2021/05/13 01:42:14;;;;;;;4.51;2.16;;;;;;;12.28;60.38;98687.16;390860;104;1985966;-72
2021/05/13 01:43:27;;;;;;;6.90;3.26;;;;;;;12.13;60.22;98694.96;331311;106;2701931;-72
2021/05/13 01:44:33;;;;;;;10.85;4.64;;;;;;;12.08;60.34;98693.78;366822;109;1964917;-73
2021/05/13 01:45:46;;;;;;;7.19;2.93;;;;;;;12.23;60.36;98687.87;380777;108;1985964;-73
2021/05/13 01:46:52;;;;;;;6.07;2.66;;;;;;;12.02;60.59;98692.05;341314;110;2326049;-72
2021/05/13 01:48:05;;;;;;;8.12;3.41;;;;;;;12.09;60.84;98683.77;392248;104;2073018;-73
2021/05/13 01:49:21;;;;;;;6.64;2.67;;;;;;;11.93;61.11;98684.52;371845;109;1961890;-72
2021/05/13 01:50:47;;;;;;;4.83;2.27;;;;;;;11.89;61.87;98684.19;369728;109;1962000;-72
2021/05/13 01:51:53;;;;;;;5.41;2.37;;;;;;;11.86;61.42;98685.48;371833;107;1964986;-71
2021/05/13 01:53:08;;;;;;;10.47;2.48;;;;;;;11.91;61.69;98681.23;376695;108;1985934;-72
2021/05/13 01:54:16;;;;;;;6.09;2.46;;;;;;;11.80;61.58;98690.98;356785;114;1964014;-74
2021/05/13 01:55:28;;;;;;;5.54;2.93;;;;;;;11.90;62.77;98693.94;396832;104;1985919;-72
2021/05/13 01:56:33;;;;;;;7.46;3.02;;;;;;;11.80;62.17;98693.69;380479;105;1963027;-72
2021/05/13 01:57:56;;;;;;;5.34;2.76;;;;;;;11.78;62.20;98695.83;376439;105;1961981;-72
2021/05/13 01:59:10;;;;;;;7.87;2.63;;;;;;;11.84;62.06;98694.88;339650;104;2201953;-73
2021/05/13 02:00:16;;;;;;;7.32;2.49;;;;;;;11.73;62.02;98696.53;347585;109;1962994;-73
2021/05/13 02:01:29;;;;;;;5.48;2.61;;;;;;;11.86;62.14;98692.79;388026;106;2072942;-72
2021/05/13 02:02:35;;;;;;;7.11;2.72;;;;;;;11.74;62.23;98697.35;339676;107;2395929;-71
2021/05/13 02:03:47;;;;;;;10.05;3.97;;;;;;;11.79;62.97;98692.05;393884;104;2080996;-71
2021/05/13 02:04:53;;;;;;;9.37;3.65;;;;;;;11.66;62.88;98693.13;378223;106;1962987;-73
2021/05/13 02:06:05;;;;;;;4.03;2.46;;;;;;;11.75;62.80;98694.42;345355;106;2238094;-72
2021/05/13 02:07:13;;;;;;;5.18;2.67;;;;;;;11.61;62.81;98688.41;368477;109;1962085;-72
2021/05/13 02:08:37;;;;;;;5.36;2.47;;;;;;;11.59;63.21;98690.56;366016;109;1962004;-74
2021/05/13 02:09:42;;;;;;;6.81;2.84;;;;;;;11.58;63.13;98688.89;367305;108;1961918;-73
2021/05/13 02:10:54;;;;;;;6.92;2.67;;;;;;;11.70;63.32;98690.79;372039;104;2330884;-72
2021/05/13 02:12:00;;;;;;;4.78;2.66;;;;;;;11.65;63.46;98691.49;345884;107;1963047;-70
2021/05/13 02:13:12;;;;;;;5.38;2.64;;;;;;;11.79;63.27;98694.77;394138;104;1986917;-73
2021/05/13 02:14:18;;;;;;;6.26;3.29;;;;;;;11.62;63.27;98689.27;373013;107;1964046;-73
2021/05/13 02:15:41;;;;;;;6.36;2.87;;;;;;;11.62;63.38;98697.37;371087;107;1961958;-74
2021/05/13 02:16:48;;;;;;;5.77;3.09;;;;;;;11.60;63.42;98694.90;370402;108;1961999;-73
2021/05/13 02:18:00;;;;;;;4.26;2.69;;;;;;;11.70;63.50;98697.02;404591;101;1961940;-73
2021/05/13 02:19:05;;;;;;;7.16;3.76;;;;;;;11.58;63.39;98696.19;384005;105;1962021;-73
2021/05/13 02:20:13;;;;;;;5.83;3.06;;;;;;;11.61;63.86;98698.42;386156;103;1961943;-72
2021/05/13 02:21:19;;;;;;;8.35;3.29;;;;;;;11.61;63.65;98691.13;381221;105;1962919;-72
2021/05/13 02:22:32;;;;;;;6.83;3.77;;;;;;;11.75;63.73;98693.58;393247;104;1989963;-74
2021/05/13 02:23:38;;;;;;;8.14;3.02;;;;;;;11.69;63.73;98691.83;336082;107;2652978;-72
2021/05/13 02:24:44;;;;;;;6.82;3.29;;;;;;;11.68;63.48;98684.78;358535;107;1962930;-72
2021/05/13 02:25:56;;;;;;;7.22;3.26;;;;;;;11.81;63.44;98692.65;395540;104;1985941;-73
2021/05/13 02:27:02;;;;;;;6.20;3.19;;;;;;;11.71;63.42;98692.42;375506;105;1961950;-73
2021/05/13 02:28:15;;;;;;;6.45;3.08;;;;;;;11.82;63.40;98688.87;386992;106;1961981;-71
2021/05/13 02:29:20;;;;;;;5.96;3.69;;;;;;;11.71;63.39;98687.02;366030;109;1970017;-72
2021/05/13 02:30:44;;;;;;;5.36;3.40;;;;;;;11.70;63.44;98685.38;361399;112;1961952;-73
2021/05/13 02:31:57;;;;;;;7.94;4.15;;;;;;;11.80;63.63;98690.98;395875;104;1987891;-73
2021/05/13 02:33:03;;;;;;;8.63;4.05;;;;;;;11.70;63.47;98686.20;347329;107;2451990;-72
2021/05/13 02:34:09;;;;;;;7.17;3.97;;;;;;;11.72;63.40;98688.64;378533;106;1961963;-72
2021/05/13 02:35:22;;;;;;;9.22;3.84;;;;;;;11.83;63.52;98687.83;402633;102;1985795;-72
2021/05/13 02:36:28;;;;;;;6.98;4.22;;;;;;;11.74;63.45;98691.94;378572;105;1961971;-72
2021/05/13 02:37:34;;;;;;;7.93;4.22;;;;;;;11.77;63.39;98696.88;380202;105;1961834;-72
2021/05/13 02:38:47;;;;;;;10.34;4.21;;;;;;;11.88;63.49;98696.05;383045;104;1986044;-73
2021/05/13 02:39:53;;;;;;;14.12;4.65;;;;;;;11.80;63.33;98688.28;371276;109;1961899;-73
2021/05/13 02:41:06;;;;;;;9.80;4.41;;;;;;;11.92;63.63;98689.13;399956;104;1985866;-73
2021/05/13 02:42:12;;;;;;;8.66;3.99;;;;;;;11.82;63.45;98688.87;339114;105;2648932;-74
2021/05/13 02:43:24;;;;;;;7.19;4.59;;;;;;;11.97;63.51;98689.23;394928;104;2072015;-71
2021/05/13 02:44:29;;;;;;;6.82;3.71;;;;;;;11.90;63.24;98693.13;380668;105;1963932;-73
2021/05/13 02:45:52;;;;;;;8.09;3.77;;;;;;;11.88;63.33;98686.08;377893;105;1962061;-72
2021/05/13 02:46:57;;;;;;;11.45;4.48;;;;;;;11.90;63.14;98691.23;381012;105;1961892;-73
2021/05/13 02:48:10;;;;;;;6.97;3.32;;;;;;;12.04;63.14;98689.08;400306;104;1986956;-72
2021/05/13 02:49:16;;;;;;;6.93;3.77;;;;;;;11.93;63.22;98687.23;347071;105;2541978;-72
2021/05/13 02:50:28;;;;;;;9.04;4.46;;;;;;;12.05;63.32;98690.74;396043;103;2080988;-71
2021/05/13 02:51:35;;;;;;;6.42;3.94;;;;;;;11.95;63.16;98694.05;379437;105;1961972;-72
2021/05/13 02:52:58;;;;;;;7.21;3.66;;;;;;;11.95;63.16;98691.34;378416;105;1963906;-72
2021/05/13 02:54:05;;;;;;;6.38;3.79;;;;;;;11.98;63.16;98692.75;379679;105;1962003;-72
2021/05/13 09:12:28;;;;;;;3.32;1.47;;;;;;;20.11;32.69;98655.60;394781;101;1984950;-71
2021/05/13 09:13:34;;;;;;;4.08;1.51;;;;;;;19.98;32.66;98668.09;364694;107;1960679;-73
2021/05/13 09:14:39;;;;;;;5.40;1.85;;;;;;;20.02;32.80;98662.02;362371;109;1960894;-73
2021/05/13 09:15:57;;;;;;;6.39;1.61;;;;;;;20.11;32.74;98661.09;382942;104;1985986;-75
2021/05/13 09:17:02;;;;;;;6.13;1.74;;;;;;;20.00;32.77;98667.78;375601;106;1961035;-76
2021/05/13 09:18:15;;;;;;;4.59;1.68;;;;;;;20.11;32.49;98660.25;395622;104;1984767;-73
2021/05/13 09:19:27;;;;;;;4.49;1.82;;;;;;;20.05;32.66;98670.46;377855;103;1960952;-72
2021/05/13 09:20:53;;;;;;;6.92;1.32;;;;;;;20.05;32.53;98667.72;375758;106;1962015;-71
2021/05/13 09:22:09;;;;;;;8.41;2.99;;;;;;;20.20;32.57;98661.24;399324;104;1985928;-75
2021/05/13 09:24:50;;;;;;;4.28;1.76;;;;;;;20.29;32.30;98664.14;391772;104;1987923;-75
2021/05/13 09:26:13;;;;;;;3.34;1.66;;;;;;;20.16;32.02;98655.55;369118;108;1963974;-72
2021/05/13 09:27:45;;;;;;;4.68;1.44;;;;;;;20.16;31.93;98652.80;370635;107;1961965;-72
2021/05/13 09:29:10;;;;;;;6.06;1.92;;;;;;;20.18;31.75;98660.72;368851;107;1961961;-72
2021/05/13 09:30:29;;;;;;;7.53;1.96;;;;;;;20.44;31.83;98655.71;403338;102;1987967;-72
2021/05/13 09:31:42;;;;;;;15.23;2.62;;;;;;;20.41;31.71;98664.53;383767;104;1960709;-72
2021/05/13 09:32:59;;;;;;;9.02;2.21;;;;;;;20.61;31.69;98664.29;396968;104;1986028;-73
2021/05/13 09:34:07;;;;;;;6.64;1.61;;;;;;;20.57;31.49;98660.49;358303;105;1964964;-72
2021/05/13 09:35:22;;;;;;;5.24;1.62;;;;;;;20.71;31.43;98663.30;379861;105;1961027;-72
2021/05/13 09:36:36;;;;;;;7.27;2.28;;;;;;;20.92;31.28;98660.26;374893;105;1985968;-72
2021/05/13 09:37:50;;;;;;;5.66;2.02;;;;;;;20.78;31.34;98657.45;375263;107;1961971;-72
2021/05/13 09:39:24;;;;;;;5.59;1.64;;;;;;;20.90;31.54;98644.07;360223;104;2488889;-72
2021/05/13 09:40:41;;;;;;;4.68;2.12;;;;;;;20.76;31.41;98646.77;369150;108;1962947;-73
2021/05/13 09:42:00;;;;;;;5.68;1.59;;;;;;;20.90;31.50;98660.54;394632;104;1986012;-73
2021/05/13 09:43:22;;;;;;;4.76;1.87;;;;;;;20.88;31.50;98650.97;335071;105;2020999;-72
2021/05/13 09:44:48;;;;;;;5.66;2.08;;;;;;;20.75;31.17;98653.38;340388;104;1961937;-73
2021/05/13 09:46:06;;;;;;;3.51;1.88;;;;;;;20.82;31.57;98651.05;403136;101;1985957;-72
2021/05/13 09:47:21;;;;;;;4.71;1.81;;;;;;;20.71;31.45;98654.27;382724;105;1961959;-72
2021/05/13 09:48:44;;;;;;;11.68;2.56;;;;;;;20.83;31.50;98655.45;372642;105;1963610;-72
2021/05/13 09:50:04;;;;;;;3.03;1.74;;;;;;;21.08;31.72;98653.41;379479;101;1986953;-72
2021/05/13 09:51:25;;;;;;;4.75;1.57;;;;;;;21.08;31.67;98661.64;375246;107;1961961;-73
2021/05/13 09:52:45;;;;;;;6.26;1.94;;;;;;;21.26;31.49;98662.72;384466;104;1985905;-74
2021/05/13 09:54:16;;;;;;;5.10;1.51;;;;;;;21.30;31.22;98663.73;374461;107;1961963;-72
2021/05/13 09:55:39;;;;;;;7.81;1.67;;;;;;;21.16;30.67;98652.71;363382;109;1962000;-71
2021/05/13 09:56:54;;;;;;;5.54;1.56;;;;;;;21.24;30.64;98652.02;391994;106;1985902;-72
2021/05/13 09:58:09;;;;;;;4.38;1.64;;;;;;;21.05;30.68;98674.03;370162;107;1962035;-72
2021/05/13 09:59:38;;;;;;;7.06;1.87;;;;;;;21.06;30.89;98658.37;352143;104;2074007;-72
2021/05/13 10:00:47;;;;;;;7.40;2.07;;;;;;;20.88;31.21;98657.30;362318;105;1961975;-72
2021/05/13 10:02:05;;;;;;;6.57;1.97;;;;;;;20.90;31.59;98652.31;393073;103;1985995;-73
2021/05/13 10:03:17;;;;;;;8.84;2.31;;;;;;;20.94;31.41;98664.34;377212;106;1962039;-72
2021/05/13 10:04:40;;;;;;;5.74;2.36;;;;;;;20.96;31.75;98658.56;367887;104;1960776;-73
2021/05/13 10:05:48;;;;;;;4.34;1.68;;;;;;;21.05;31.73;98654.81;363153;109;1961984;-72
2021/05/13 10:06:55;;;;;;;3.93;1.36;;;;;;;21.14;31.64;98654.94;345319;107;1961926;-74
2021/05/13 10:08:07;;;;;;;5.55;1.99;;;;;;;21.38;31.35;98657.61;392992;104;2071000;-73
2021/05/13 10:09:25;;;;;;;6.09;1.48;;;;;;;21.40;30.85;98660.03;301319;107;2307005;-72
2021/05/13 10:11:00;;;;;;;5.93;1.88;;;;;;;21.49;30.80;98660.98;364842;110;1961896;-72
2021/05/13 10:12:09;;;;;;;4.51;2.13;;;;;;;21.64;30.23;98654.38;353137;106;1961960;-72
2021/05/13 10:13:20;;;;;;;9.08;2.34;;;;;;;21.67;30.12;98664.75;332068;108;2702039;-73
2021/05/13 10:14:28;;;;;;;6.31;1.71;;;;;;;21.57;30.03;98662.22;319143;108;2142964;-72
2021/05/13 10:15:36;;;;;;;9.63;1.76;;;;;;;21.55;30.06;98665.27;371324;107;1962013;-72
2021/05/13 10:16:44;;;;;;;5.19;2.00;;;;;;;21.44;30.00;98667.37;368493;108;1961934;-73
2021/05/13 10:18:21;;;;;;;7.48;1.68;;;;;;;21.42;29.91;98664.11;393341;104;1986012;-72
2021/05/13 10:19:30;;;;;;;8.74;2.06;;;;;;;21.35;30.03;98662.84;376457;107;1963006;-72
2021/05/13 10:20:44;;;;;;;4.73;1.96;;;;;;;21.43;30.12;98651.19;401228;104;1985929;-73
2021/05/13 10:21:52;;;;;;;3.06;1.78;;;;;;;21.28;30.13;98655.00;379374;105;1961967;-72
2021/05/13 10:23:16;;;;;;;6.19;2.07;;;;;;;21.32;29.68;98650.52;383713;105;1965941;-73
2021/05/13 10:24:28;;;;;;;3.54;1.75;;;;;;;21.50;29.66;98646.92;395769;104;1987907;-72
2021/05/13 10:25:36;;;;;;;3.15;1.63;;;;;;;21.50;29.96;98644.17;369380;109;1961958;-73
2021/05/13 10:26:50;;;;;;;5.34;1.76;;;;;;;21.70;29.93;98661.42;375307;109;1986991;-73
2021/05/13 10:28:00;;;;;;;4.84;1.78;;;;;;;21.71;29.48;98643.80;320594;111;2878996;-74
2021/05/13 10:29:26;;;;;;;4.97;1.83;;;;;;;21.68;29.57;98642.48;361679;111;1960998;-73
2021/05/13 10:30:38;;;;;;;6.31;1.94;;;;;;;21.76;29.38;98649.20;371738;104;1985952;-72
2021/05/13 10:31:43;;;;;;;7.09;1.84;;;;;;;21.71;29.26;98647.36;359074;107;1962024;-73
2021/05/13 10:33:11;;;;;;;5.09;1.59;;;;;;;21.72;29.14;98648.17;375386;106;1961974;-72
2021/05/13 10:34:46;;;;;;;4.27;2.11;;;;;;;21.79;29.58;98637.59;343910;103;2176962;-72
2021/05/13 10:36:04;;;;;;;4.63;1.85;;;;;;;21.49;29.43;98634.31;374661;107;1961937;-72
2021/05/13 10:37:41;;;;;;;3.55;1.79;;;;;;;21.47;29.74;98638.48;409485;101;1971866;-73
2021/05/13 10:38:56;;;;;;;6.61;1.62;;;;;;;21.48;29.62;98640.10;378279;103;1961970;-72
2021/05/13 10:41:35;;;;;;;5.97;2.22;;;;;;;21.58;29.64;98626.17;387757;106;1985987;-71
2021/05/13 10:42:42;;;;;;;4.84;1.52;;;;;;;21.48;29.49;98626.36;350154;109;1961902;-72
2021/05/13 10:43:47;;;;;;;3.24;1.68;;;;;;;21.63;29.36;98620.58;367907;109;1964068;-72
2021/05/13 10:44:59;;;;;;;4.92;1.79;;;;;;;21.92;29.40;98636.78;368559;109;1985995;-72
2021/05/13 10:46:09;;;;;;;6.09;1.97;;;;;;;21.85;28.72;98619.06;307952;114;2895028;-72
2021/05/13 10:47:29;;;;;;;4.22;2.01;;;;;;;22.15;28.45;98629.44;375865;102;1984770;-72
2021/05/13 10:48:39;;;;;;;3.28;1.44;;;;;;;22.07;28.65;98618.33;366023;108;1961971;-72
2021/05/13 10:50:03;;;;;;;6.79;1.76;;;;;;;22.23;28.71;98625.19;369781;106;1961892;-72
2021/05/13 10:51:10;;;;;;;3.96;1.57;;;;;;;22.32;28.80;98617.81;368065;108;1961912;-72
2021/05/13 10:52:35;;;;;;;12.98;8.33;;;;;;;22.40;28.96;98616.27;394674;104;1987866;-72
2021/05/13 10:53:45;;;;;;;4.75;2.31;;;;;;;22.23;28.99;98619.68;378669;105;1962987;-71
2021/05/13 10:54:50;;;;;;;8.09;2.55;;;;;;;22.17;29.18;98615.36;380402;105;1962013;-72
2021/05/13 10:56:17;;;;;;;3.87;2.08;;;;;;;22.21;29.32;98621.92;379505;105;1961823;-72
2021/05/13 10:57:49;;;;;;;5.47;2.62;;;;;;;22.30;29.08;98613.74;386997;106;1985972;-72
2021/05/13 10:59:08;;;;;;;4.23;1.85;;;;;;;22.29;29.01;98618.44;390041;106;1985965;-72
2021/05/13 11:00:21;;;;;;;4.89;1.85;;;;;;;22.42;28.98;98621.48;383522;104;1984835;-72
2021/05/13 11:01:56;;;;;;;4.41;1.79;;;;;;;22.41;28.98;98628.09;348858;114;1963991;-73
2021/05/13 11:03:20;;;;;;;3.22;1.73;;;;;;;22.63;28.68;98621.83;347839;106;2630882;-71
2021/05/13 11:04:29;;;;;;;6.96;1.63;;;;;;;22.51;28.34;98614.10;366146;110;1962025;-72
2021/05/13 11:05:53;;;;;;;2.22;1.38;;;;;;;22.39;28.10;98623.72;367579;108;1960987;-73
2021/05/13 11:07:08;;;;;;;3.89;2.24;;;;;;;22.42;28.34;98619.53;391862;104;2071956;-73
2021/05/13 11:08:21;;;;;;;6.52;2.36;;;;;;;22.35;28.42;98619.94;372921;106;1962016;-73
2021/05/13 11:09:44;;;;;;;6.58;1.99;;;;;;;22.58;28.57;98618.05;388504;106;1986996;-72
2021/05/13 11:11:02;;;;;;;5.21;1.56;;;;;;;22.50;28.65;98624.30;358721;109;2880938;-71
2021/05/13 11:12:37;;;;;;;4.67;1.68;;;;;;;22.49;28.37;98624.59;340912;109;2483867;-72
2021/05/13 11:13:51;;;;;;;5.55;1.78;;;;;;;22.57;28.31;98615.60;395690;104;1985939;-72
2021/05/13 11:15:09;;;;;;;6.29;1.92;;;;;;;22.37;28.26;98631.46;329721;107;2043925;-72
2021/05/13 11:16:46;;;;;;;5.64;1.89;;;;;;;22.52;28.05;98621.22;387469;106;2073095;-72
2021/05/13 11:18:02;;;;;;;4.60;1.52;;;;;;;22.33;27.63;98616.71;362168;104;1998952;-72
2021/05/13 11:19:19;;;;;;;5.59;1.89;;;;;;;22.12;27.94;98626.47;347492;105;1964080;-72
2021/05/13 11:20:47;;;;;;;8.51;2.12;;;;;;;22.09;28.01;98627.90;388810;101;1984769;-72
2021/05/13 11:22:02;;;;;;;5.96;1.62;;;;;;;21.99;28.19;98621.80;332116;108;2665984;-71
2021/05/13 11:23:24;;;;;;;4.98;1.77;;;;;;;21.92;27.47;98622.22;353871;111;2854920;-72
2021/05/13 11:24:38;;;;;;;7.23;1.95;;;;;;;21.94;27.40;98629.05;362852;109;1960765;-72
2021/05/13 11:26:07;;;;;;;7.67;1.96;;;;;;;22.07;27.49;98645.83;400874;104;1984765;-72
2021/05/13 11:27:11;;;;;;;5.75;2.36;;;;;;;21.95;27.24;98638.91;379863;107;1959868;-72
2021/05/13 11:28:41;;;;;;;5.14;1.86;;;;;;;22.17;27.01;98626.36;359159;104;2608049;-72
2021/05/13 11:29:50;;;;;;;7.31;1.77;;;;;;;22.24;26.80;98629.55;374626;107;1961959;-72
2021/05/13 11:31:21;;;;;;;7.33;1.92;;;;;;;22.35;26.56;98616.38;368033;108;1962033;-72
2021/05/13 11:32:27;;;;;;;6.71;2.16;;;;;;;22.60;26.56;98624.07;370243;108;1962046;-72
2021/05/13 11:33:56;;;;;;;6.62;1.64;;;;;;;22.90;26.65;98624.46;366990;102;1984792;-72
2021/05/13 11:35:01;;;;;;;5.58;1.90;;;;;;;22.91;26.48;98626.08;351754;114;1962010;-72
2021/05/13 11:36:31;;;;;;;5.95;2.43;;;;;;;23.09;25.92;98618.79;395975;104;1985804;-72
2021/05/13 11:37:39;;;;;;;5.32;2.02;;;;;;;22.87;26.06;98619.58;363391;107;1961949;-73
2021/05/13 11:39:17;;;;;;;4.91;1.88;;;;;;;22.70;26.45;98611.98;375852;107;1962035;-73
2021/05/13 11:40:30;;;;;;;5.76;1.76;;;;;;;22.61;26.68;98617.43;392064;104;1986052;-72
2021/05/13 11:41:36;;;;;;;6.66;1.77;;;;;;;22.38;26.89;98591.80;375091;106;1962864;-71
2021/05/13 11:42:42;;;;;;;3.97;1.81;;;;;;;22.35;27.11;98619.14;347193;107;2491937;-71
2021/05/13 11:43:54;;;;;;;4.14;1.76;;;;;;;22.43;27.22;98618.40;398203;104;1962031;-73
2021/05/13 11:44:59;;;;;;;4.86;1.68;;;;;;;22.28;27.35;98614.07;379812;105;1970039;-73
2021/05/13 11:46:14;;;;;;;10.28;1.93;;;;;;;22.36;27.51;98629.00;396692;103;1985958;-72
2021/05/13 11:47:32;;;;;;;5.92;1.93;;;;;;;22.20;27.62;98622.22;379281;105;1961921;-72
2021/05/13 11:48:48;;;;;;;4.24;1.75;;;;;;;22.17;27.85;98623.61;317044;111;2850987;-72
2021/05/13 11:49:54;;;;;;;7.16;2.10;;;;;;;22.10;27.77;98626.80;313677;108;2202986;-73
2021/05/13 11:51:11;;;;;;;7.06;2.38;;;;;;;23.58;26.48;98633.50;387296;99;2069739;-72
2021/05/13 11:52:17;;;;;;;7.68;2.61;;;;;;;24.05;25.65;98610.98;375597;107;1969924;-73
2021/05/13 11:53:24;;;;;;;4.73;1.72;;;;;;;23.72;26.22;98633.43;375009;106;1961806;-73
2021/05/13 11:54:36;;;;;;;7.01;2.38;;;;;;;24.68;24.96;98620.67;376530;108;1985770;-73
2021/05/13 11:55:44;;;;;;;5.03;1.91;;;;;;;25.97;23.67;98603.33;350476;114;1960903;-72
2021/05/13 11:56:56;;;;;;;9.92;2.18;;;;;;;25.28;24.63;98619.02;389538;106;1985791;-73
2021/05/13 11:58:02;;;;;;;5.39;2.32;;;;;;;25.37;24.16;98621.75;367772;109;1960913;-73
2021/05/13 11:59:26;;;;;;;5.26;1.84;;;;;;;25.34;24.22;98617.69;323150;109;2110980;-73